createdAt,value
2022-11-25T00:01:16.919Z,63.05
2022-11-25T00:03:44.789Z,62.89
2022-11-25T00:06:12.990Z,62.93
2022-11-25T00:08:40.707Z,62.91
2022-11-25T00:11:07.737Z,62.87
2022-11-25T00:13:35.019Z,62.85
2022-11-25T00:16:03.290Z,62.88
2022-11-25T00:18:31.016Z,62.96
2022-11-25T00:20:57.949Z,63.01
2022-11-25T00:23:29.167Z,62.96
2022-11-25T00:26:09.833Z,63.00
2022-11-25T00:28:36.976Z,62.80
2022-11-25T00:31:26.687Z,62.80
2022-11-25T00:33:53.899Z,62.96
2022-11-25T00:36:25.175Z,62.89
2022-11-25T00:38:59.118Z,63.01
2022-11-25T00:41:45.391Z,63.11
2022-11-25T00:44:33.087Z,62.99
2022-11-25T00:47:00.109Z,63.16
2022-11-25T00:49:27.800Z,63.20
2022-11-25T00:51:55.072Z,63.00
2022-11-25T00:54:21.912Z,62.81
2022-11-25T00:56:49.274Z,63.01
2022-11-25T00:59:15.888Z,62.95
2022-11-25T01:01:42.570Z,63.26
2022-11-25T01:04:10.147Z,63.19
2022-11-25T01:06:37.695Z,63.01
2022-11-25T01:09:06.389Z,62.97
2022-11-25T01:11:33.634Z,63.01
2022-11-25T01:14:01.641Z,62.96
2022-11-25T01:16:29.377Z,63.06
2022-11-25T01:18:56.146Z,63.02
2022-11-25T01:21:25.445Z,62.76
2022-11-25T01:23:52.847Z,63.22
2022-11-25T01:26:22.263Z,63.45
2022-11-25T01:28:49.503Z,63.34
2022-11-25T01:31:19.076Z,63.05
2022-11-25T01:33:47.259Z,63.00
2022-11-25T01:36:18.498Z,63.06
2022-11-25T01:38:45.884Z,63.27
2022-11-25T01:41:14.622Z,63.30
2022-11-25T01:43:41.812Z,63.12
2022-11-25T01:46:35.216Z,63.03
2022-11-25T01:49:06.173Z,63.00
2022-11-25T01:51:42.201Z,63.28
2022-11-25T01:54:12.127Z,63.04
2022-11-25T01:56:47.064Z,63.08
2022-11-25T01:59:14.276Z,63.04
2022-11-25T02:01:41.184Z,63.33
2022-11-25T02:04:09.786Z,63.20
2022-11-25T02:06:42.041Z,62.98
2022-11-25T02:09:09.206Z,62.99
2022-11-25T02:11:41.817Z,63.04
2022-11-25T02:14:09.672Z,63.23
2022-11-25T02:16:36.553Z,63.33
2022-11-25T02:19:03.952Z,63.46
2022-11-25T02:22:00.210Z,63.42
2022-11-25T02:24:46.199Z,63.31
2022-11-25T02:27:13.943Z,63.33
2022-11-25T02:29:44.087Z,63.21
2022-11-25T02:32:10.839Z,63.06
2022-11-25T02:34:49.108Z,63.39
2022-11-25T02:37:18.708Z,63.15
2022-11-25T02:39:47.584Z,63.09
2022-11-25T02:42:15.703Z,63.04
2022-11-25T02:44:45.513Z,63.35
2022-11-25T02:47:12.276Z,62.90
2022-11-25T02:49:39.122Z,63.05
2022-11-25T02:52:05.650Z,63.46
2022-11-25T02:54:32.361Z,63.42
2022-11-25T02:57:01.056Z,63.14
2022-11-25T02:59:27.735Z,62.82
2022-11-25T03:01:55.444Z,62.91
2022-11-25T03:04:25.728Z,63.20
2022-11-25T03:06:52.446Z,63.33
2022-11-25T03:09:19.138Z,63.14
2022-11-25T03:12:04.347Z,63.12
2022-11-25T03:14:30.888Z,63.37
2022-11-25T03:16:57.515Z,63.47
2022-11-25T03:19:26.153Z,63.49
2022-11-25T03:21:52.785Z,63.61
2022-11-25T03:24:19.729Z,63.51
2022-11-25T03:26:48.636Z,63.22
2022-11-25T03:29:15.651Z,63.42
2022-11-25T03:31:42.479Z,63.43
2022-11-25T03:34:12.343Z,63.66
2022-11-25T03:36:39.474Z,63.51
2022-11-25T03:39:07.815Z,63.43
2022-11-25T03:41:36.808Z,63.46
2022-11-25T03:44:03.505Z,63.16
2022-11-25T03:46:30.552Z,63.71
2022-11-25T03:48:58.292Z,63.00
2022-11-25T03:51:24.975Z,63.50
2022-11-25T03:53:52.762Z,63.35
2022-11-25T03:56:21.421Z,63.35
2022-11-25T03:58:47.983Z,63.61
2022-11-25T04:01:16.156Z,63.57
2022-11-25T04:03:44.661Z,63.35
2022-11-25T04:06:11.212Z,63.41
2022-11-25T04:08:39.006Z,63.49
2022-11-25T04:11:07.143Z,63.62
2022-11-25T04:13:39.269Z,63.60
2022-11-25T04:16:05.990Z,63.58
2022-11-25T04:18:32.865Z,63.87
2022-11-25T04:21:00.151Z,63.56
2022-11-25T04:23:27.025Z,63.46
2022-11-25T04:26:00.912Z,63.75
2022-11-25T04:28:34.034Z,63.71
2022-11-25T04:31:06.168Z,63.56
2022-11-25T04:33:33.945Z,63.35
2022-11-25T04:36:00.688Z,63.79
2022-11-25T04:38:27.321Z,63.53
2022-11-25T04:40:55.105Z,63.68
2022-11-25T04:43:23.420Z,63.70
2022-11-25T04:46:13.510Z,63.58
2022-11-25T04:48:41.338Z,63.68
2022-11-25T04:51:27.639Z,63.58
2022-11-25T04:53:58.788Z,63.75
2022-11-25T04:56:25.682Z,63.70
2022-11-25T04:59:12.819Z,63.81
2022-11-25T05:01:43.793Z,63.28
2022-11-25T05:04:35.200Z,63.56
2022-11-25T05:07:02.119Z,63.60
2022-11-25T05:09:29.206Z,63.67
2022-11-25T05:12:18.525Z,63.76
2022-11-25T05:14:45.423Z,63.36
2022-11-25T05:17:18.641Z,63.39
2022-11-25T05:19:46.122Z,63.41
2022-11-25T05:22:16.856Z,63.35
2022-11-25T05:24:45.560Z,63.30
2022-11-25T05:27:13.513Z,63.23
2022-11-25T05:29:40.176Z,63.88
2022-11-25T05:32:09.562Z,63.58
2022-11-25T05:34:37.836Z,63.60
2022-11-25T05:37:24.690Z,63.40
2022-11-25T05:39:58.533Z,63.78
2022-11-25T05:42:45.540Z,63.62
2022-11-25T05:45:12.401Z,64.12
2022-11-25T05:47:40.190Z,63.70
2022-11-25T05:50:08.038Z,63.82
2022-11-25T05:52:34.969Z,63.72
2022-11-25T05:55:02.057Z,64.06
2022-11-25T05:57:29.211Z,63.72
2022-11-25T06:00:05.960Z,65.03
2022-11-25T06:02:42.157Z,64.76
2022-11-25T06:05:12.037Z,63.72
2022-11-25T06:07:38.980Z,63.71
2022-11-25T06:10:07.378Z,63.55
2022-11-25T06:12:36.474Z,63.63
2022-11-25T06:15:03.717Z,63.89
2022-11-25T06:17:30.801Z,63.82
2022-11-25T06:20:08.010Z,63.81
2022-11-25T06:22:35.023Z,63.80
2022-11-25T06:25:03.876Z,63.79
2022-11-25T06:27:56.902Z,63.48
2022-11-25T06:30:21.105Z,63.95
2022-11-25T06:33:01.869Z,63.74
2022-11-25T06:35:28.580Z,63.95
2022-11-25T06:37:59.051Z,63.98
2022-11-25T06:40:25.672Z,64.01
2022-11-25T06:42:52.367Z,63.84
2022-11-25T06:45:19.486Z,64.07
2022-11-25T06:47:46.285Z,63.42
2022-11-25T06:50:13.141Z,64.04
2022-11-25T06:52:39.701Z,64.34
2022-11-25T06:55:06.637Z,64.38
2022-11-25T06:57:33.286Z,63.84
2022-11-25T06:59:59.927Z,63.85
2022-11-25T07:02:26.554Z,64.25
2022-11-25T07:04:53.827Z,64.19
2022-11-25T07:07:20.586Z,64.12
2022-11-25T07:09:47.677Z,63.95
2022-11-25T07:12:14.378Z,63.80
2022-11-25T07:14:41.070Z,64.23
2022-11-25T07:17:11.980Z,64.23
2022-11-25T07:19:38.922Z,64.24
2022-11-25T07:22:05.703Z,64.26
2022-11-25T07:24:33.945Z,63.94
2022-11-25T07:27:00.821Z,64.20
2022-11-25T07:29:54.167Z,65.00
2022-11-25T07:32:15.192Z,65.47
2022-11-25T07:34:41.957Z,65.14
2022-11-25T07:37:08.788Z,64.92
2022-11-25T07:39:35.666Z,64.59
2022-11-25T07:42:02.477Z,64.81
2022-11-25T07:44:29.033Z,64.54
2022-11-25T07:47:21.442Z,64.40
2022-11-25T07:49:48.218Z,64.22
2022-11-25T07:52:14.712Z,64.26
2022-11-25T07:54:41.325Z,64.51
2022-11-25T07:57:07.952Z,64.46
2022-11-25T07:59:36.341Z,64.77
2022-11-25T08:02:03.101Z,64.30
2022-11-25T08:04:29.702Z,64.25
2022-11-25T08:07:15.324Z,64.31
2022-11-25T08:09:42.131Z,64.30
2022-11-25T08:12:08.793Z,64.32
2022-11-25T08:14:35.771Z,63.74
2022-11-25T08:17:04.510Z,63.16
2022-11-25T08:19:32.198Z,63.24
2022-11-25T08:21:58.980Z,63.53
2022-11-25T08:24:25.740Z,63.50
2022-11-25T08:26:54.343Z,63.49
2022-11-25T08:29:20.952Z,63.47
2022-11-25T08:31:47.664Z,63.65
2022-11-25T08:34:23.398Z,63.45
2022-11-25T08:36:54.067Z,62.96
2022-11-25T08:39:50.641Z,63.09
2022-11-25T08:42:08.762Z,63.46
2022-11-25T08:44:36.331Z,63.28
2022-11-25T08:47:03.041Z,63.52
2022-11-25T08:49:32.789Z,63.46
2022-11-25T08:52:02.966Z,63.88
2022-11-25T08:54:29.537Z,63.81
2022-11-25T08:56:56.214Z,64.04
2022-11-25T08:59:22.916Z,64.32
2022-11-25T09:01:49.912Z,63.87
2022-11-25T09:04:16.492Z,64.08
2022-11-25T09:06:43.160Z,64.02
2022-11-25T09:09:09.831Z,64.20
2022-11-25T09:11:36.568Z,63.75
2022-11-25T09:14:03.323Z,63.88
2022-11-25T09:16:30.101Z,63.82
2022-11-25T09:18:57.017Z,63.97
2022-11-25T09:21:25.129Z,64.24
2022-11-25T09:23:54.655Z,64.12
2022-11-25T09:26:29.618Z,64.30
2022-11-25T09:28:56.675Z,64.17
2022-11-25T09:31:23.924Z,64.00
2022-11-25T09:33:51.184Z,64.27
2022-11-25T09:36:19.555Z,64.31
2022-11-25T09:38:47.155Z,63.88
2022-11-25T09:42:01.324Z,64.48
2022-11-25T09:45:05.988Z,64.33
2022-11-25T09:48:06.323Z,64.48
2022-11-25T09:51:02.472Z,64.30
2022-11-25T09:53:52.200Z,64.31
2022-11-25T09:56:48.948Z,64.74
2022-11-25T09:59:19.526Z,64.62
2022-11-25T10:02:21.485Z,64.44
2022-11-25T10:04:54.746Z,64.25
2022-11-25T10:07:30.099Z,64.30
2022-11-25T10:09:58.327Z,64.33
2022-11-25T10:12:30.771Z,64.25
2022-11-25T10:15:02.970Z,64.25
2022-11-25T10:17:35.283Z,64.13
2022-11-25T10:20:07.917Z,64.40
2022-11-25T10:22:37.752Z,64.05
2022-11-25T10:25:18.759Z,64.43
2022-11-25T10:28:02.489Z,64.49
2022-11-25T10:30:41.214Z,64.50
2022-11-25T10:33:19.416Z,64.57
2022-11-25T10:35:57.390Z,64.36
2022-11-25T10:38:30.610Z,64.51
2022-11-25T10:40:57.347Z,64.66
2022-11-25T10:43:27.298Z,64.37
2022-11-25T10:46:19.060Z,64.41
2022-11-25T10:49:09.061Z,64.46
2022-11-25T10:51:39.768Z,64.32
2022-11-25T10:54:27.285Z,64.55
2022-11-25T10:56:57.688Z,64.26
2022-11-25T10:59:39.841Z,64.14
2022-11-25T11:02:24.932Z,64.39
2022-11-25T11:04:51.464Z,64.33
2022-11-25T11:07:18.075Z,64.04
2022-11-25T11:09:46.043Z,64.30
2022-11-25T11:12:27.777Z,64.16
2022-11-25T11:15:15.749Z,64.19
2022-11-25T11:17:42.411Z,64.17
2022-11-25T11:20:09.296Z,64.11
2022-11-25T11:22:44.728Z,64.38
2022-11-25T11:25:20.538Z,64.03
2022-11-25T11:27:47.721Z,63.79
2022-11-25T11:30:17.347Z,63.76
2022-11-25T11:32:47.959Z,63.76
2022-11-25T11:35:29.408Z,64.39
2022-11-25T11:38:07.332Z,64.27
2022-11-25T11:40:47.169Z,63.82
2022-11-25T11:43:35.856Z,63.74
2022-11-25T11:46:17.215Z,63.41
2022-11-25T11:49:05.821Z,63.23
2022-11-25T11:52:07.880Z,62.93
2022-11-25T11:54:44.860Z,62.92
2022-11-25T11:57:23.109Z,62.86
2022-11-25T11:59:53.461Z,62.93
2022-11-25T12:02:24.004Z,62.62
2022-11-25T12:04:53.474Z,62.81
2022-11-25T12:07:49.927Z,62.48
2022-11-25T12:10:24.057Z,62.61
2022-11-25T12:13:04.250Z,62.36
2022-11-25T12:16:10.217Z,62.42
2022-11-25T12:18:56.918Z,62.58
2022-11-25T12:21:51.660Z,62.82
2022-11-25T12:24:37.336Z,62.93
2022-11-25T12:27:08.615Z,62.62
2022-11-25T12:29:52.376Z,62.56
2022-11-25T12:32:44.996Z,62.60
2022-11-25T12:35:11.768Z,62.59
2022-11-25T12:37:46.707Z,62.32
2022-11-25T12:40:33.731Z,62.45
2022-11-25T12:43:21.931Z,62.87
2022-11-25T12:45:54.330Z,62.30
2022-11-25T12:48:21.709Z,62.08
2022-11-25T12:51:02.787Z,61.84
2022-11-25T12:53:54.712Z,61.77
2022-11-25T12:56:33.117Z,61.84
2022-11-25T12:59:27.175Z,61.87
2022-11-25T13:02:27.652Z,61.74
2022-11-25T13:08:52.527Z,61.53
2022-11-25T13:11:45.552Z,61.59
2022-11-25T13:14:31.063Z,61.75
2022-11-25T13:17:00.262Z,61.66
2022-11-25T13:19:27.641Z,61.87
2022-11-25T13:24:42.567Z,61.75
2022-11-25T13:27:31.943Z,61.71
2022-11-25T13:30:00.158Z,61.76
2022-11-25T13:32:35.871Z,61.55
2022-11-25T13:38:06.358Z,61.37
2022-11-25T13:40:37.580Z,61.19
2022-11-25T13:43:23.021Z,61.28
2022-11-25T13:45:50.320Z,61.09
2022-11-25T13:48:24.431Z,60.73
2022-11-25T13:51:10.818Z,60.57
2022-11-25T13:53:38.884Z,60.73
2022-11-25T13:56:24.467Z,60.94
2022-11-25T13:59:09.941Z,61.33
2022-11-25T14:01:41.530Z,61.57
2022-11-25T14:04:12.791Z,61.67
2022-11-25T14:06:51.074Z,62.28
2022-11-25T14:09:41.173Z,62.37
2022-11-25T14:12:14.218Z,61.96
2022-11-25T14:15:18.204Z,61.82
2022-11-25T14:18:03.255Z,61.66
2022-11-25T14:20:45.194Z,61.36
2022-11-25T14:23:22.612Z,61.61
2022-11-25T14:25:52.911Z,61.99
2022-11-25T14:28:47.173Z,61.52
2022-11-25T14:31:23.229Z,61.37
2022-11-25T14:33:58.250Z,61.30
2022-11-25T14:36:30.683Z,61.24
2022-11-25T14:39:06.282Z,61.37
2022-11-25T14:41:37.107Z,61.22
2022-11-25T14:44:13.787Z,61.21
2022-11-25T14:46:57.950Z,61.44
2022-11-25T14:49:59.448Z,61.50
2022-11-25T14:52:35.848Z,61.75
2022-11-25T14:55:05.719Z,61.73
2022-11-25T14:57:35.711Z,61.68
2022-11-25T15:00:07.176Z,61.57
2022-11-25T15:02:36.691Z,61.61
2022-11-25T15:05:16.378Z,61.78
2022-11-25T15:07:58.316Z,61.46
2022-11-25T15:10:39.172Z,61.48
2022-11-25T15:13:23.049Z,61.66
2022-11-25T15:15:50.747Z,61.69
2022-11-25T15:18:21.607Z,61.45
2022-11-25T15:20:53.404Z,61.24
2022-11-25T15:23:32.030Z,61.70
2022-11-25T15:25:58.835Z,61.38
2022-11-25T15:28:25.455Z,61.34
2022-11-25T15:31:16.432Z,61.21
2022-11-25T15:33:44.329Z,61.00
2022-11-25T15:36:10.968Z,60.95
2022-11-25T15:38:43.779Z,60.95
2022-11-25T15:41:34.831Z,60.78
2022-11-25T15:44:06.247Z,60.80
2022-11-25T15:46:35.757Z,61.29
2022-11-25T15:49:06.092Z,61.20
2022-11-25T15:51:43.439Z,61.37
2022-11-25T15:54:13.230Z,61.28
2022-11-25T15:56:47.202Z,61.10
2022-11-25T15:59:45.928Z,61.14
2022-11-25T16:02:27.435Z,60.82
2022-11-25T16:05:16.433Z,60.93
2022-11-25T16:07:52.339Z,61.34
2022-11-25T16:10:26.431Z,61.13
2022-11-25T16:13:22.001Z,61.04
2022-11-25T16:15:57.944Z,60.92
2022-11-25T16:18:42.632Z,61.32
2022-11-25T16:21:15.750Z,61.19
2022-11-25T16:23:47.456Z,60.95
2022-11-25T16:26:20.035Z,61.10
2022-11-25T16:28:57.809Z,60.87
2022-11-25T16:31:25.572Z,61.06
2022-11-25T16:34:09.604Z,61.05
2022-11-25T16:36:36.257Z,61.26
2022-11-25T16:39:03.741Z,60.85
2022-11-25T16:41:30.904Z,60.84
2022-11-25T16:44:00.891Z,60.74
2022-11-25T16:46:29.624Z,60.51
2022-11-25T16:48:56.259Z,60.41
2022-11-25T16:51:24.985Z,60.75
2022-11-25T16:53:51.644Z,60.89
2022-11-25T16:56:26.585Z,61.49
2022-11-25T16:58:53.456Z,61.55
2022-11-25T17:01:26.555Z,61.67
2022-11-25T17:03:53.505Z,61.29
2022-11-25T17:06:23.017Z,61.60
2022-11-25T17:08:50.273Z,61.45
2022-11-25T17:11:27.248Z,61.13
2022-11-25T17:13:54.837Z,61.02
2022-11-25T17:16:26.834Z,61.11
2022-11-25T17:18:55.565Z,60.79
2022-11-25T17:21:26.942Z,60.96
2022-11-25T17:23:55.513Z,61.22
2022-11-25T17:26:33.374Z,61.21
2022-11-25T17:29:01.897Z,61.10
2022-11-25T17:31:31.377Z,61.36
2022-11-25T17:33:58.454Z,61.12
2022-11-25T17:36:26.299Z,60.85
2022-11-25T17:38:52.953Z,61.17
2022-11-25T17:41:22.019Z,60.80
2022-11-25T17:43:52.043Z,60.96
2022-11-25T17:46:18.968Z,61.14
2022-11-25T17:48:45.618Z,60.98
2022-11-25T17:51:14.250Z,61.40
2022-11-25T17:53:41.690Z,61.12
2022-11-25T17:56:20.057Z,61.07
2022-11-25T17:58:46.860Z,61.06
2022-11-25T18:01:14.852Z,61.05
2022-11-25T18:03:41.519Z,60.84
2022-11-25T18:06:08.237Z,60.94
2022-11-25T18:08:37.855Z,61.08
2022-11-25T18:11:06.391Z,60.95
2022-11-25T18:13:44.316Z,60.92
2022-11-25T18:16:11.921Z,60.69
2022-11-25T18:18:38.859Z,60.57
2022-11-25T18:21:05.531Z,60.68
2022-11-25T18:23:32.164Z,60.92
2022-11-25T18:26:03.298Z,60.77
2022-11-25T18:28:31.898Z,61.07
2022-11-25T18:31:02.974Z,61.00
2022-11-25T18:33:30.371Z,60.75
2022-11-25T18:35:57.483Z,60.94
2022-11-25T18:38:24.266Z,61.24
2022-11-25T18:40:53.907Z,61.20
2022-11-25T18:43:23.302Z,61.26
2022-11-25T18:45:50.611Z,61.13
2022-11-25T18:48:23.098Z,61.12
2022-11-25T18:50:52.485Z,61.45
2022-11-25T18:53:19.278Z,61.34
2022-11-25T18:55:46.693Z,61.20
2022-11-25T18:58:19.124Z,61.34
2022-11-25T19:00:48.707Z,61.60
2022-11-25T19:03:21.214Z,61.52
2022-11-25T19:05:48.910Z,61.58
2022-11-25T19:08:15.724Z,61.64
2022-11-25T19:10:44.551Z,61.63
2022-11-25T19:13:27.540Z,61.46
2022-11-25T19:15:54.408Z,61.59
2022-11-25T19:18:26.691Z,61.64
2022-11-25T19:20:53.364Z,61.72
2022-11-25T19:23:25.423Z,61.61
2022-11-25T19:25:54.232Z,61.56
2022-11-25T19:28:21.706Z,61.56
2022-11-25T19:30:48.435Z,61.68
2022-11-25T19:33:27.038Z,61.68
2022-11-25T19:35:53.880Z,61.80
2022-11-25T19:38:26.138Z,61.74
2022-11-25T19:40:57.098Z,61.91
2022-11-25T19:43:27.008Z,61.95
2022-11-25T19:45:56.266Z,62.08
2022-11-25T19:48:24.985Z,62.09
2022-11-25T19:50:59.336Z,62.06
2022-11-25T19:53:33.189Z,62.04
2022-11-25T19:56:04.105Z,62.21
2022-11-25T19:58:31.261Z,62.36
2022-11-25T20:01:02.387Z,62.17
2022-11-25T20:03:31.096Z,62.38
2022-11-25T20:05:58.180Z,62.43
2022-11-25T20:08:27.903Z,62.41
2022-11-25T20:10:56.161Z,62.94
2022-11-25T20:13:24.123Z,62.87
2022-11-25T20:15:51.357Z,63.17
2022-11-25T20:18:22.316Z,63.07
2022-11-25T20:20:56.011Z,63.77
2022-11-25T20:23:43.350Z,63.59
2022-11-25T20:26:29.763Z,63.22
2022-11-25T20:28:56.769Z,63.14
2022-11-25T20:31:28.667Z,62.73
2022-11-25T20:33:56.920Z,62.76
2022-11-25T20:36:31.149Z,62.20
2022-11-25T20:38:59.777Z,62.37
2022-11-25T20:41:28.119Z,62.34
2022-11-25T20:43:56.471Z,62.41
2022-11-25T20:46:28.922Z,62.27
2022-11-25T20:48:59.144Z,62.21
2022-11-25T20:51:26.436Z,62.27
2022-11-25T20:53:56.262Z,62.22
2022-11-25T20:56:24.768Z,62.25
2022-11-25T20:58:51.516Z,62.46
2022-11-25T21:01:21.434Z,62.53
2022-11-25T21:03:49.719Z,62.51
2022-11-25T21:06:22.783Z,62.84
2022-11-25T21:08:52.268Z,63.10
2022-11-25T21:11:20.309Z,63.29
2022-11-25T21:13:47.786Z,63.28
2022-11-25T21:16:14.870Z,63.41
2022-11-25T21:18:42.895Z,63.56
2022-11-25T21:21:16.856Z,63.52
2022-11-25T21:23:45.137Z,63.38
2022-11-25T21:26:20.326Z,63.46
2022-11-25T21:28:49.938Z,63.32
2022-11-25T21:31:20.110Z,63.45
2022-11-25T21:33:48.059Z,63.40
2022-11-25T21:36:21.883Z,63.07
2022-11-25T21:38:51.346Z,63.20
2022-11-25T21:41:18.752Z,63.12
2022-11-25T21:43:48.724Z,63.14
2022-11-25T21:46:20.858Z,63.15
2022-11-25T21:48:48.132Z,63.09
2022-11-25T21:51:21.615Z,63.18
2022-11-25T21:53:49.175Z,63.18
2022-11-25T21:56:30.735Z,63.18
2022-11-25T21:58:59.635Z,63.14
2022-11-25T22:01:26.414Z,62.98
2022-11-25T22:03:53.511Z,63.27
2022-11-25T22:06:28.787Z,63.32
2022-11-25T22:08:56.644Z,63.28
2022-11-25T22:11:35.958Z,63.39
2022-11-25T22:14:04.588Z,63.33
2022-11-25T22:16:34.814Z,63.45
2022-11-25T22:19:01.988Z,63.53
2022-11-25T22:21:28.760Z,63.52
2022-11-25T22:23:58.495Z,63.76
2022-11-25T22:26:33.573Z,63.60
2022-11-25T22:29:01.345Z,63.59
2022-11-25T22:31:28.540Z,63.73
2022-11-25T22:33:55.979Z,63.71
2022-11-25T22:36:28.435Z,63.84
2022-11-25T22:38:55.105Z,63.92
2022-11-25T22:41:22.018Z,63.84
2022-11-25T22:43:52.462Z,63.94
2022-11-25T22:46:19.523Z,64.00
2022-11-25T22:48:46.390Z,63.92
2022-11-25T22:51:17.936Z,63.92
2022-11-25T22:53:44.727Z,64.01
2022-11-25T22:56:18.948Z,63.93
2022-11-25T22:58:46.434Z,63.71
2022-11-25T23:01:14.995Z,63.89
2022-11-25T23:03:43.203Z,64.02
2022-11-25T23:06:13.950Z,63.79
2022-11-25T23:08:41.015Z,63.98
2022-11-25T23:11:16.627Z,64.14
2022-11-25T23:13:43.489Z,64.03
2022-11-25T23:16:10.746Z,63.83
2022-11-25T23:18:43.269Z,63.95
2022-11-25T23:21:23.050Z,63.91
2022-11-25T23:23:50.413Z,63.74
2022-11-25T23:26:17.476Z,63.89
2022-11-25T23:28:44.189Z,64.05
2022-11-25T23:31:13.651Z,64.11
2022-11-25T23:33:46.505Z,64.27
2022-11-25T23:36:22.067Z,63.62
2022-11-25T23:38:55.382Z,64.04
2022-11-25T23:41:24.776Z,63.93
2022-11-25T23:43:51.472Z,63.77
2022-11-25T23:46:22.705Z,63.69
2022-11-25T23:49:17.771Z,64.18
2022-11-25T23:51:44.493Z,64.15
2022-11-25T23:54:15.291Z,63.92
2022-11-25T23:56:42.799Z,64.33
2022-11-25T23:59:14.639Z,64.27
